NJE171L LPPT-EGGW
Flight info
| Callsign | NJE171L |
|---|---|
| Flight time | N/A |
| Altitude | 38000 |
| Route | IXIDA DCT TOSDI DCT ZMR DCT NUBLO DCT RONSI DCT DELOG DCT FUJTI DCT IDNUN DCT ATGEB DCT DIKRO UM185 TELTU |
| Aircraft | B737/M-SDE2E3FGHIRWXY/L |
Departure
| Time | 2026-05-05 17:56 |
|---|---|
| Airport | Lisbon Humberto Delgado Airport (LPPT) |
Arrival
| Time | N/A |
|---|---|
| Airport | London Luton Airport (EGGW) |
| Time | Latitude | Longitude | Altitude | Speed | Heading |
|---|---|---|---|---|---|
| 2026-05-05 17:40 | 38.76494 | -9.13590 | 347 ft | 0 kts | 168° |
| 2026-05-05 17:48 | 38.76511 | -9.13595 | 350 ft | 4 kts | 168° |
| 2026-05-05 17:48 | 38.76537 | -9.13600 | 351 ft | 4 kts | 162° |
| 2026-05-05 17:48 | 38.76555 | -9.13611 | 354 ft | 4 kts | 134° |
| 2026-05-05 17:48 | 38.76562 | -9.13637 | 357 ft | 4 kts | 77° |
| 2026-05-05 17:49 | 38.76557 | -9.13669 | 357 ft | 2 kts | 90° |
| 2026-05-05 17:49 | 38.76557 | -9.13676 | 357 ft | 0 kts | 91° |
| 2026-05-05 17:53 | 38.76561 | -9.13669 | 355 ft | 2 kts | 46° |
| 2026-05-05 17:53 | 38.76590 | -9.13665 | 346 ft | 8 kts | 349° |
| 2026-05-05 17:53 | 38.76614 | -9.13725 | 345 ft | 8 kts | 264° |
| 2026-05-05 17:53 | 38.76604 | -9.13793 | 345 ft | 9 kts | 258° |
| 2026-05-05 17:54 | 38.76589 | -9.13881 | 345 ft | 11 kts | 258° |
| 2026-05-05 17:54 | 38.76570 | -9.13984 | 352 ft | 12 kts | 249° |
| 2026-05-05 17:54 | 38.76524 | -9.14063 | 346 ft | 10 kts | 228° |
| 2026-05-05 17:54 | 38.76496 | -9.14145 | 348 ft | 10 kts | 264° |
| 2026-05-05 17:55 | 38.76518 | -9.14245 | 336 ft | 13 kts | 293° |
| 2026-05-05 17:55 | 38.76548 | -9.14335 | 332 ft | 11 kts | 292° |
| 2026-05-05 17:55 | 38.76599 | -9.14403 | 335 ft | 11 kts | 349° |
| 2026-05-05 17:55 | 38.76671 | -9.14374 | 332 ft | 11 kts | 23° |
| 2026-05-05 17:56 | 38.76861 | -9.14273 | 352 ft | 66 kts | 22° |
| 2026-05-05 17:56 | 38.77535 | -9.13912 | 367 ft | 140 kts | 22° |
| 2026-05-05 17:56 | 38.78579 | -9.13343 | 669 ft | 182 kts | 21° |
| 2026-05-05 17:56 | 38.79792 | -9.12625 | 1457 ft | 189 kts | 25° |
| 2026-05-05 17:57 | 38.80885 | -9.11864 | 2812 ft | 176 kts | 22° |
| 2026-05-05 17:57 | 38.81653 | -9.11369 | 3292 ft | 192 kts | 23° |
| 2026-05-05 17:57 | 38.82883 | -9.10439 | 3632 ft | 224 kts | 37° |
| 2026-05-05 17:57 | 38.84008 | -9.08992 | 4431 ft | 235 kts | 41° |
| 2026-05-05 17:58 | 38.85203 | -9.07410 | 5058 ft | 257 kts | 43° |
| 2026-05-05 17:58 | 38.86461 | -9.05744 | 6142 ft | 262 kts | 43° |
| 2026-05-05 17:58 | 38.87746 | -9.04048 | 7207 ft | 267 kts | 43° |
| 2026-05-05 17:58 | 38.89045 | -9.02340 | 8332 ft | 270 kts | 42° |
| 2026-05-05 17:59 | 38.90385 | -9.00587 | 9284 ft | 279 kts | 42° |
| 2026-05-05 17:59 | 38.91751 | -8.98804 | 10344 ft | 282 kts | 41° |
| 2026-05-05 17:59 | 38.93179 | -8.96950 | 10855 ft | 306 kts | 41° |
| 2026-05-05 17:59 | 38.94735 | -8.94933 | 11361 ft | 326 kts | 41° |
| 2026-05-05 18:00 | 38.96350 | -8.92834 | 12198 ft | 333 kts | 41° |
| 2026-05-05 18:00 | 38.97992 | -8.90696 | 13167 ft | 339 kts | 41° |
| 2026-05-05 18:00 | 38.99665 | -8.88517 | 14094 ft | 346 kts | 41° |
| 2026-05-05 18:00 | 39.01372 | -8.86295 | 14963 ft | 352 kts | 41° |
| 2026-05-05 18:01 | 39.03107 | -8.84035 | 15878 ft | 358 kts | 41° |
| 2026-05-05 18:01 | 39.04875 | -8.81732 | 16776 ft | 365 kts | 41° |
| 2026-05-05 18:01 | 39.06674 | -8.79387 | 17688 ft | 371 kts | 41° |
| 2026-05-05 18:01 | 39.08503 | -8.77002 | 18542 ft | 378 kts | 41° |
| 2026-05-05 18:02 | 39.10362 | -8.74575 | 19339 ft | 383 kts | 41° |
| 2026-05-05 18:02 | 39.12243 | -8.72118 | 20174 ft | 387 kts | 41° |
| 2026-05-05 18:02 | 39.14147 | -8.69627 | 20996 ft | 393 kts | 41° |
| 2026-05-05 18:02 | 39.16087 | -8.67113 | 21772 ft | 398 kts | 40° |
| 2026-05-05 18:03 | 39.18084 | -8.64597 | 22557 ft | 404 kts | 40° |
| 2026-05-05 18:03 | 39.20118 | -8.62066 | 23333 ft | 409 kts | 40° |
| 2026-05-05 18:03 | 39.22178 | -8.59507 | 24015 ft | 414 kts | 40° |
| 2026-05-05 18:03 | 39.24262 | -8.56912 | 24646 ft | 419 kts | 40° |
| 2026-05-05 18:04 | 39.26367 | -8.54282 | 25274 ft | 424 kts | 40° |
| 2026-05-05 18:04 | 39.28501 | -8.51608 | 25900 ft | 429 kts | 40° |
| 2026-05-05 18:04 | 39.30652 | -8.48907 | 26495 ft | 434 kts | 40° |
| 2026-05-05 18:04 | 39.32799 | -8.46205 | 27085 ft | 438 kts | 40° |
| 2026-05-05 18:05 | 39.34993 | -8.43440 | 27671 ft | 443 kts | 40° |
| 2026-05-05 18:05 | 39.37209 | -8.40644 | 28259 ft | 447 kts | 40° |
| 2026-05-05 18:05 | 39.39446 | -8.37818 | 28822 ft | 452 kts | 40° |
| 2026-05-05 18:05 | 39.41710 | -8.34956 | 29361 ft | 456 kts | 40° |
| 2026-05-05 18:06 | 39.43991 | -8.32070 | 29840 ft | 461 kts | 40° |
| 2026-05-05 18:06 | 39.45514 | -8.30141 | 30135 ft | 464 kts | 40° |
| 2026-05-05 18:06 | 39.48619 | -8.26205 | 30648 ft | 469 kts | 40° |
| 2026-05-05 18:06 | 39.50959 | -8.23236 | 31051 ft | 472 kts | 40° |
| 2026-05-05 18:07 | 39.53281 | -8.20284 | 31535 ft | 473 kts | 40° |
| 2026-05-05 18:07 | 39.55629 | -8.17296 | 32099 ft | 471 kts | 40° |
| 2026-05-05 18:07 | 39.57960 | -8.14325 | 32672 ft | 469 kts | 40° |
| 2026-05-05 18:07 | 39.60288 | -8.11357 | 33149 ft | 470 kts | 40° |
| 2026-05-05 18:08 | 39.62620 | -8.08382 | 33589 ft | 470 kts | 40° |
| 2026-05-05 18:08 | 39.64951 | -8.05407 | 34074 ft | 470 kts | 40° |
| 2026-05-05 18:08 | 39.67278 | -8.02434 | 34491 ft | 469 kts | 40° |
| 2026-05-05 18:08 | 39.69598 | -7.99466 | 34887 ft | 468 kts | 40° |
| 2026-05-05 18:09 | 39.71916 | -7.96497 | 35260 ft | 468 kts | 40° |
| 2026-05-05 18:09 | 39.74234 | -7.93526 | 35646 ft | 468 kts | 40° |
| 2026-05-05 18:09 | 39.76548 | -7.90557 | 36044 ft | 467 kts | 40° |
| 2026-05-05 18:09 | 39.78857 | -7.87592 | 36413 ft | 466 kts | 40° |
| 2026-05-05 18:10 | 39.81161 | -7.84629 | 36820 ft | 465 kts | 40° |
| 2026-05-05 18:10 | 39.83458 | -7.81673 | 37177 ft | 464 kts | 40° |
| 2026-05-05 18:10 | 39.85755 | -7.78714 | 37521 ft | 464 kts | 40° |
| 2026-05-05 18:10 | 39.88044 | -7.75763 | 37900 ft | 462 kts | 40° |
| 2026-05-05 18:11 | 39.90340 | -7.72801 | 38022 ft | 467 kts | 40° |
| 2026-05-05 18:11 | 39.94983 | -7.66804 | 38012 ft | 469 kts | 40° |
| 2026-05-05 18:12 | 39.99537 | -7.60898 | 38009 ft | 460 kts | 40° |
| 2026-05-05 18:12 | 40.04087 | -7.54992 | 38004 ft | 462 kts | 41° |
| 2026-05-05 18:13 | 40.08640 | -7.49073 | 38018 ft | 461 kts | 41° |
| 2026-05-05 18:13 | 40.13186 | -7.43152 | 38010 ft | 461 kts | 41° |
| 2026-05-05 18:14 | 40.17704 | -7.37253 | 38001 ft | 462 kts | 41° |
| 2026-05-05 18:14 | 40.22243 | -7.31314 | 38003 ft | 462 kts | 41° |
| 2026-05-05 18:15 | 40.26789 | -7.25355 | 38003 ft | 462 kts | 41° |
| 2026-05-05 18:15 | 40.31331 | -7.19390 | 38002 ft | 463 kts | 41° |
| 2026-05-05 18:16 | 40.35873 | -7.13412 | 38005 ft | 462 kts | 41° |
| 2026-05-05 18:16 | 40.40418 | -7.07417 | 38004 ft | 463 kts | 41° |
| 2026-05-05 18:17 | 40.44923 | -7.01462 | 38008 ft | 463 kts | 41° |
| 2026-05-05 18:17 | 40.49459 | -6.95457 | 38001 ft | 463 kts | 41° |
| 2026-05-05 18:18 | 40.53992 | -6.89441 | 38011 ft | 463 kts | 41° |
| 2026-05-05 18:18 | 40.58525 | -6.83414 | 38012 ft | 463 kts | 41° |
| 2026-05-05 18:19 | 40.63060 | -6.77372 | 38010 ft | 463 kts | 41° |
| 2026-05-05 18:19 | 40.67586 | -6.71329 | 38002 ft | 464 kts | 41° |
| 2026-05-05 18:20 | 40.72084 | -6.65311 | 38024 ft | 464 kts | 41° |
| 2026-05-05 18:20 | 40.76625 | -6.59224 | 38008 ft | 464 kts | 41° |
| 2026-05-05 18:21 | 40.81156 | -6.53137 | 38001 ft | 464 kts | 41° |
| 2026-05-05 18:21 | 40.85673 | -6.47055 | 38006 ft | 464 kts | 41° |
| 2026-05-05 18:22 | 40.90162 | -6.40998 | 38011 ft | 464 kts | 41° |
| 2026-05-05 18:22 | 40.94675 | -6.34898 | 38006 ft | 464 kts | 41° |
| 2026-05-05 18:23 | 40.99190 | -6.28793 | 38006 ft | 463 kts | 40° |
| 2026-05-05 18:23 | 41.03902 | -6.22999 | 38004 ft | 460 kts | 37° |
| 2026-05-05 18:24 | 41.08663 | -6.17422 | 38000 ft | 459 kts | 37° |
| 2026-05-05 18:24 | 41.13430 | -6.11790 | 38003 ft | 459 kts | 37° |
| 2026-05-05 18:25 | 41.18167 | -6.06127 | 37995 ft | 459 kts | 37° |
| 2026-05-05 18:25 | 41.22910 | -6.00427 | 37997 ft | 459 kts | 37° |
| 2026-05-05 18:26 | 41.27641 | -5.94729 | 37993 ft | 458 kts | 37° |
| 2026-05-05 18:26 | 41.32364 | -5.89031 | 37988 ft | 458 kts | 37° |
| 2026-05-05 18:27 | 41.37047 | -5.83371 | 37987 ft | 457 kts | 37° |
| 2026-05-05 18:27 | 41.41747 | -5.77679 | 37998 ft | 456 kts | 37° |
| 2026-05-05 18:28 | 41.48795 | -5.69121 | 37999 ft | 457 kts | 38° |
| 2026-05-05 18:28 | 41.53683 | -5.63791 | 37988 ft | 450 kts | 26° |
| 2026-05-05 18:29 | 41.59268 | -5.60290 | 38004 ft | 442 kts | 17° |
| 2026-05-05 18:29 | 41.64972 | -5.57176 | 38027 ft | 443 kts | 17° |
| 2026-05-05 18:30 | 41.70690 | -5.54016 | 38000 ft | 445 kts | 17° |
| 2026-05-05 18:30 | 41.76385 | -5.50813 | 37997 ft | 446 kts | 17° |
| 2026-05-05 18:31 | 41.82105 | -5.47569 | 37998 ft | 446 kts | 18° |
| 2026-05-05 18:31 | 41.87801 | -5.44330 | 38015 ft | 447 kts | 18° |
| 2026-05-05 18:32 | 41.93526 | -5.41069 | 38003 ft | 447 kts | 18° |
| 2026-05-05 18:32 | 41.99259 | -5.37799 | 38003 ft | 447 kts | 18° |
| 2026-05-05 18:33 | 42.04989 | -5.34524 | 37999 ft | 447 kts | 18° |
| 2026-05-05 18:33 | 42.10720 | -5.31243 | 38005 ft | 447 kts | 19° |
| 2026-05-05 18:34 | 42.16448 | -5.27957 | 38001 ft | 448 kts | 19° |
| 2026-05-05 18:34 | 42.22144 | -5.24683 | 37994 ft | 447 kts | 19° |
| 2026-05-05 18:35 | 42.27869 | -5.21385 | 37995 ft | 447 kts | 19° |
| 2026-05-05 18:35 | 42.33595 | -5.18081 | 38001 ft | 447 kts | 19° |
| 2026-05-05 18:36 | 42.39313 | -5.14774 | 37991 ft | 447 kts | 19° |
| 2026-05-05 18:36 | 42.45032 | -5.11460 | 37992 ft | 446 kts | 19° |
| 2026-05-05 18:37 | 42.50746 | -5.08142 | 38007 ft | 446 kts | 19° |
| 2026-05-05 18:37 | 42.56440 | -5.04827 | 38002 ft | 445 kts | 19° |
| 2026-05-05 18:38 | 42.62099 | -5.01528 | 38001 ft | 445 kts | 19° |
| 2026-05-05 18:38 | 42.67788 | -4.98207 | 38002 ft | 444 kts | 19° |
| 2026-05-05 18:39 | 42.73471 | -4.94882 | 38003 ft | 444 kts | 19° |
| 2026-05-05 18:39 | 42.79152 | -4.91551 | 38011 ft | 444 kts | 19° |
| 2026-05-05 18:40 | 42.84827 | -4.88217 | 37999 ft | 444 kts | 19° |
| 2026-05-05 18:40 | 42.90503 | -4.84876 | 38018 ft | 444 kts | 19° |
| 2026-05-05 18:41 | 42.96181 | -4.81528 | 38012 ft | 445 kts | 20° |
| 2026-05-05 18:41 | 43.01839 | -4.78184 | 38014 ft | 446 kts | 20° |
| 2026-05-05 18:42 | 43.07531 | -4.74812 | 38015 ft | 446 kts | 20° |
| 2026-05-05 18:42 | 43.13222 | -4.71435 | 38042 ft | 446 kts | 20° |
| 2026-05-05 18:43 | 43.17964 | -4.68615 | 38022 ft | 446 kts | 20° |
| 2026-05-05 18:43 | 43.24537 | -4.64466 | 38013 ft | 448 kts | 23° |
| 2026-05-05 18:44 | 43.29298 | -4.61591 | 38030 ft | 445 kts | 20° |
| 2026-05-05 18:44 | 43.35002 | -4.58356 | 38040 ft | 445 kts | 20° |
| 2026-05-05 18:45 | 43.40707 | -4.55009 | 38005 ft | 445 kts | 20° |
| 2026-05-05 18:45 | 43.46376 | -4.51609 | 38027 ft | 444 kts | 21° |
| 2026-05-05 18:46 | 43.52035 | -4.48190 | 38019 ft | 444 kts | 21° |
| 2026-05-05 18:46 | 43.57691 | -4.44770 | 38031 ft | 444 kts | 21° |
| 2026-05-05 18:47 | 43.63311 | -4.41373 | 38014 ft | 444 kts | 21° |
| 2026-05-05 18:47 | 43.68968 | -4.37954 | 38011 ft | 444 kts | 21° |
| 2026-05-05 18:48 | 43.74631 | -4.34526 | 38010 ft | 444 kts | 21° |
| 2026-05-05 18:48 | 43.80283 | -4.31090 | 38008 ft | 444 kts | 21° |
| 2026-05-05 18:49 | 43.85938 | -4.27646 | 38009 ft | 444 kts | 21° |